sensor_id;sensor_type;location;lat;lon;timestamp;P1;durP1;ratioP1;P2;durP2;ratioP2
25810;SDS011;13645;52.460;13.910;2022-07-29T00:02:16;11.55;;;2.30;;
25810;SDS011;13645;52.460;13.910;2022-07-29T00:04:42;7.80;;;2.55;;
25810;SDS011;13645;52.460;13.910;2022-07-29T00:07:09;7.15;;;2.65;;
25810;SDS011;13645;52.460;13.910;2022-07-29T00:09:38;8.23;;;2.60;;
25810;SDS011;13645;52.460;13.910;2022-07-29T00:12:15;6.88;;;2.65;;
25810;SDS011;13645;52.460;13.910;2022-07-29T00:14:51;9.02;;;2.70;;
25810;SDS011;13645;52.460;13.910;2022-07-29T00:17:18;7.90;;;2.70;;
25810;SDS011;13645;52.460;13.910;2022-07-29T00:19:45;6.38;;;2.40;;
25810;SDS011;13645;52.460;13.910;2022-07-29T00:22:11;8.93;;;2.85;;
25810;SDS011;13645;52.460;13.910;2022-07-29T00:24:38;10.15;;;2.88;;
25810;SDS011;13645;52.460;13.910;2022-07-29T00:27:05;19.70;;;3.17;;
25810;SDS011;13645;52.460;13.910;2022-07-29T00:29:32;9.93;;;2.67;;
25810;SDS011;13645;52.460;13.910;2022-07-29T00:32:00;9.02;;;2.80;;
25810;SDS011;13645;52.460;13.910;2022-07-29T00:34:27;9.93;;;3.00;;
25810;SDS011;13645;52.460;13.910;2022-07-29T00:37:12;9.25;;;3.03;;
25810;SDS011;13645;52.460;13.910;2022-07-29T00:39:39;7.65;;;3.10;;
25810;SDS011;13645;52.460;13.910;2022-07-29T00:42:06;8.88;;;2.78;;
25810;SDS011;13645;52.460;13.910;2022-07-29T00:44:40;7.55;;;2.60;;
25810;SDS011;13645;52.460;13.910;2022-07-29T00:47:08;8.20;;;2.90;;
25810;SDS011;13645;52.460;13.910;2022-07-29T00:49:36;8.68;;;3.33;;
25810;SDS011;13645;52.460;13.910;2022-07-29T00:52:05;10.43;;;3.30;;
25810;SDS011;13645;52.460;13.910;2022-07-29T00:54:33;10.48;;;2.85;;
25810;SDS011;13645;52.460;13.910;2022-07-29T00:57:04;13.18;;;3.08;;
25810;SDS011;13645;52.460;13.910;2022-07-29T00:59:34;7.35;;;3.13;;
25810;SDS011;13645;52.460;13.910;2022-07-29T01:02:02;10.38;;;3.53;;
25810;SDS011;13645;52.460;13.910;2022-07-29T01:04:29;10.13;;;3.13;;
25810;SDS011;13645;52.460;13.910;2022-07-29T01:06:57;9.52;;;3.60;;
25810;SDS011;13645;52.460;13.910;2022-07-29T01:09:25;5.72;;;3.03;;
25810;SDS011;13645;52.460;13.910;2022-07-29T01:12:13;11.70;;;3.53;;
25810;SDS011;13645;52.460;13.910;2022-07-29T01:14:43;6.40;;;2.97;;
25810;SDS011;13645;52.460;13.910;2022-07-29T01:17:12;8.68;;;3.33;;
25810;SDS011;13645;52.460;13.910;2022-07-29T01:22:29;9.10;;;3.33;;
25810;SDS011;13645;52.460;13.910;2022-07-29T01:30:43;9.65;;;3.80;;
25810;SDS011;13645;52.460;13.910;2022-07-29T01:33:13;9.77;;;4.03;;
25810;SDS011;13645;52.460;13.910;2022-07-29T01:36:05;9.60;;;3.85;;
25810;SDS011;13645;52.460;13.910;2022-07-29T01:38:37;15.27;;;3.88;;
25810;SDS011;13645;52.460;13.910;2022-07-29T01:41:08;10.15;;;3.30;;
25810;SDS011;13645;52.460;13.910;2022-07-29T01:44:01;12.63;;;3.58;;
25810;SDS011;13645;52.460;13.910;2022-07-29T01:46:30;11.25;;;3.78;;
25810;SDS011;13645;52.460;13.910;2022-07-29T01:49:46;13.35;;;3.65;;
25810;SDS011;13645;52.460;13.910;2022-07-29T01:51:57;7.63;;;3.47;;
25810;SDS011;13645;52.460;13.910;2022-07-29T01:57:13;12.35;;;4.13;;
25810;SDS011;13645;52.460;13.910;2022-07-29T01:59:46;6.93;;;3.72;;
25810;SDS011;13645;52.460;13.910;2022-07-29T02:02:16;11.85;;;3.70;;
25810;SDS011;13645;52.460;13.910;2022-07-29T02:04:45;14.50;;;4.45;;
25810;SDS011;13645;52.460;13.910;2022-07-29T02:07:17;10.95;;;4.25;;
25810;SDS011;13645;52.460;13.910;2022-07-29T02:09:47;10.77;;;4.03;;
25810;SDS011;13645;52.460;13.910;2022-07-29T02:12:16;7.47;;;3.58;;
25810;SDS011;13645;52.460;13.910;2022-07-29T02:14:45;9.38;;;3.40;;
25810;SDS011;13645;52.460;13.910;2022-07-29T02:17:17;12.45;;;4.05;;
25810;SDS011;13645;52.460;13.910;2022-07-29T02:19:51;6.28;;;3.78;;
25810;SDS011;13645;52.460;13.910;2022-07-29T02:22:22;9.60;;;3.90;;
25810;SDS011;13645;52.460;13.910;2022-07-29T02:24:51;11.57;;;3.40;;
25810;SDS011;13645;52.460;13.910;2022-07-29T02:27:19;11.57;;;4.07;;
25810;SDS011;13645;52.460;13.910;2022-07-29T02:29:47;10.60;;;4.03;;
25810;SDS011;13645;52.460;13.910;2022-07-29T02:32:16;10.10;;;3.95;;
25810;SDS011;13645;52.460;13.910;2022-07-29T02:34:44;12.75;;;4.03;;
25810;SDS011;13645;52.460;13.910;2022-07-29T02:37:12;6.03;;;3.95;;
25810;SDS011;13645;52.460;13.910;2022-07-29T02:39:40;13.15;;;4.47;;
25810;SDS011;13645;52.460;13.910;2022-07-29T02:42:10;9.13;;;3.92;;
25810;SDS011;13645;52.460;13.910;2022-07-29T02:44:39;7.72;;;3.88;;
25810;SDS011;13645;52.460;13.910;2022-07-29T02:50:13;6.93;;;3.80;;
25810;SDS011;13645;52.460;13.910;2022-07-29T02:52:44;8.45;;;3.65;;
25810;SDS011;13645;52.460;13.910;2022-07-29T02:55:25;12.20;;;3.95;;
25810;SDS011;13645;52.460;13.910;2022-07-29T03:00:55;6.82;;;4.15;;
25810;SDS011;13645;52.460;13.910;2022-07-29T03:03:25;5.63;;;3.20;;
25810;SDS011;13645;52.460;13.910;2022-07-29T03:05:56;8.10;;;3.70;;
25810;SDS011;13645;52.460;13.910;2022-07-29T03:08:25;10.70;;;4.03;;
25810;SDS011;13645;52.460;13.910;2022-07-29T03:10:53;11.25;;;3.78;;
25810;SDS011;13645;52.460;13.910;2022-07-29T03:13:21;10.57;;;4.00;;
25810;SDS011;13645;52.460;13.910;2022-07-29T03:15:48;9.82;;;3.33;;
25810;SDS011;13645;52.460;13.910;2022-07-29T03:18:16;9.25;;;3.63;;
25810;SDS011;13645;52.460;13.910;2022-07-29T03:20:43;7.50;;;3.53;;
25810;SDS011;13645;52.460;13.910;2022-07-29T03:23:10;5.82;;;3.40;;
25810;SDS011;13645;52.460;13.910;2022-07-29T03:25:37;9.77;;;3.80;;
25810;SDS011;13645;52.460;13.910;2022-07-29T03:28:04;10.05;;;3.70;;
25810;SDS011;13645;52.460;13.910;2022-07-29T03:30:30;9.00;;;3.70;;
25810;SDS011;13645;52.460;13.910;2022-07-29T03:32:57;6.40;;;3.03;;
25810;SDS011;13645;52.460;13.910;2022-07-29T03:35:24;12.82;;;3.90;;
25810;SDS011;13645;52.460;13.910;2022-07-29T03:37:51;8.65;;;3.78;;
25810;SDS011;13645;52.460;13.910;2022-07-29T03:40:19;7.22;;;3.65;;
25810;SDS011;13645;52.460;13.910;2022-07-29T03:42:51;9.35;;;3.83;;
25810;SDS011;13645;52.460;13.910;2022-07-29T03:45:21;5.65;;;3.28;;
25810;SDS011;13645;52.460;13.910;2022-07-29T03:47:50;6.97;;;3.60;;
25810;SDS011;13645;52.460;13.910;2022-07-29T03:50:26;7.93;;;3.53;;
25810;SDS011;13645;52.460;13.910;2022-07-29T03:52:54;7.32;;;4.07;;
25810;SDS011;13645;52.460;13.910;2022-07-29T03:55:21;9.70;;;3.78;;
25810;SDS011;13645;52.460;13.910;2022-07-29T03:57:48;5.60;;;3.45;;
25810;SDS011;13645;52.460;13.910;2022-07-29T04:00:16;6.80;;;3.20;;
25810;SDS011;13645;52.460;13.910;2022-07-29T04:02:43;9.77;;;3.25;;
25810;SDS011;13645;52.460;13.910;2022-07-29T04:05:15;9.82;;;3.22;;
25810;SDS011;13645;52.460;13.910;2022-07-29T04:07:48;7.38;;;3.20;;
25810;SDS011;13645;52.460;13.910;2022-07-29T04:10:15;7.45;;;3.55;;
25810;SDS011;13645;52.460;13.910;2022-07-29T04:12:55;9.10;;;3.55;;
25810;SDS011;13645;52.460;13.910;2022-07-29T04:15:22;11.32;;;3.30;;
25810;SDS011;13645;52.460;13.910;2022-07-29T04:17:49;5.68;;;3.15;;
25810;SDS011;13645;52.460;13.910;2022-07-29T04:20:15;7.78;;;3.05;;
25810;SDS011;13645;52.460;13.910;2022-07-29T04:22:42;7.47;;;3.35;;
25810;SDS011;13645;52.460;13.910;2022-07-29T04:25:09;8.55;;;3.40;;
25810;SDS011;13645;52.460;13.910;2022-07-29T04:27:35;5.80;;;3.40;;
25810;SDS011;13645;52.460;13.910;2022-07-29T04:30:22;7.25;;;3.30;;
25810;SDS011;13645;52.460;13.910;2022-07-29T04:32:49;7.18;;;3.50;;
25810;SDS011;13645;52.460;13.910;2022-07-29T04:35:15;7.70;;;3.30;;
25810;SDS011;13645;52.460;13.910;2022-07-29T04:37:42;6.68;;;3.30;;
25810;SDS011;13645;52.460;13.910;2022-07-29T04:40:09;7.75;;;3.85;;
25810;SDS011;13645;52.460;13.910;2022-07-29T04:42:36;12.57;;;3.53;;
25810;SDS011;13645;52.460;13.910;2022-07-29T04:45:11;10.23;;;3.30;;
25810;SDS011;13645;52.460;13.910;2022-07-29T04:47:39;8.05;;;2.85;;
25810;SDS011;13645;52.460;13.910;2022-07-29T04:50:06;16.58;;;3.30;;
25810;SDS011;13645;52.460;13.910;2022-07-29T04:52:33;8.05;;;3.15;;
25810;SDS011;13645;52.460;13.910;2022-07-29T04:55:03;8.32;;;3.00;;
25810;SDS011;13645;52.460;13.910;2022-07-29T04:57:31;8.57;;;3.47;;
25810;SDS011;13645;52.460;13.910;2022-07-29T04:59:58;6.80;;;3.10;;
25810;SDS011;13645;52.460;13.910;2022-07-29T05:02:24;5.53;;;3.20;;
25810;SDS011;13645;52.460;13.910;2022-07-29T05:04:51;6.93;;;3.35;;
25810;SDS011;13645;52.460;13.910;2022-07-29T05:07:18;6.40;;;2.80;;
25810;SDS011;13645;52.460;13.910;2022-07-29T05:09:45;7.03;;;2.95;;
25810;SDS011;13645;52.460;13.910;2022-07-29T05:12:11;7.97;;;2.95;;
25810;SDS011;13645;52.460;13.910;2022-07-29T05:14:38;6.00;;;2.95;;
25810;SDS011;13645;52.460;13.910;2022-07-29T05:17:05;8.82;;;2.90;;
25810;SDS011;13645;52.460;13.910;2022-07-29T05:19:31;6.80;;;3.10;;
25810;SDS011;13645;52.460;13.910;2022-07-29T05:22:04;7.13;;;3.42;;
25810;SDS011;13645;52.460;13.910;2022-07-29T05:24:31;9.88;;;2.95;;
25810;SDS011;13645;52.460;13.910;2022-07-29T05:26:58;10.95;;;3.50;;
25810;SDS011;13645;52.460;13.910;2022-07-29T05:29:25;7.32;;;2.88;;
25810;SDS011;13645;52.460;13.910;2022-07-29T05:32:11;6.22;;;2.95;;
25810;SDS011;13645;52.460;13.910;2022-07-29T05:34:40;6.22;;;2.85;;
25810;SDS011;13645;52.460;13.910;2022-07-29T05:37:16;7.82;;;3.28;;
25810;SDS011;13645;52.460;13.910;2022-07-29T05:39:43;7.18;;;3.05;;
25810;SDS011;13645;52.460;13.910;2022-07-29T05:42:22;8.27;;;2.90;;
25810;SDS011;13645;52.460;13.910;2022-07-29T05:44:49;7.55;;;3.35;;
25810;SDS011;13645;52.460;13.910;2022-07-29T05:47:16;5.88;;;3.00;;
25810;SDS011;13645;52.460;13.910;2022-07-29T05:49:42;7.35;;;2.58;;
25810;SDS011;13645;52.460;13.910;2022-07-29T05:52:09;9.02;;;3.15;;
25810;SDS011;13645;52.460;13.910;2022-07-29T05:54:36;11.77;;;3.17;;
25810;SDS011;13645;52.460;13.910;2022-07-29T05:57:03;8.32;;;3.13;;
25810;SDS011;13645;52.460;13.910;2022-07-29T05:59:31;6.00;;;2.90;;
25810;SDS011;13645;52.460;13.910;2022-07-29T06:02:01;7.05;;;2.60;;
25810;SDS011;13645;52.460;13.910;2022-07-29T06:04:28;9.95;;;3.13;;
25810;SDS011;13645;52.460;13.910;2022-07-29T06:06:55;10.25;;;3.35;;
25810;SDS011;13645;52.460;13.910;2022-07-29T06:09:22;8.27;;;3.10;;
25810;SDS011;13645;52.460;13.910;2022-07-29T06:11:49;10.20;;;3.10;;
25810;SDS011;13645;52.460;13.910;2022-07-29T06:14:16;7.07;;;3.20;;
25810;SDS011;13645;52.460;13.910;2022-07-29T06:16:43;6.93;;;3.08;;
25810;SDS011;13645;52.460;13.910;2022-07-29T06:19:10;10.70;;;3.38;;
25810;SDS011;13645;52.460;13.910;2022-07-29T06:21:41;13.05;;;3.10;;
25810;SDS011;13645;52.460;13.910;2022-07-29T06:24:13;9.27;;;2.95;;
25810;SDS011;13645;52.460;13.910;2022-07-29T06:26:41;6.93;;;2.92;;
25810;SDS011;13645;52.460;13.910;2022-07-29T06:29:08;7.13;;;2.70;;
25810;SDS011;13645;52.460;13.910;2022-07-29T06:31:38;10.32;;;3.22;;
25810;SDS011;13645;52.460;13.910;2022-07-29T06:34:05;9.80;;;3.08;;
25810;SDS011;13645;52.460;13.910;2022-07-29T06:36:36;8.38;;;3.10;;
25810;SDS011;13645;52.460;13.910;2022-07-29T06:39:07;6.82;;;3.00;;
25810;SDS011;13645;52.460;13.910;2022-07-29T06:41:36;11.77;;;2.95;;
25810;SDS011;13645;52.460;13.910;2022-07-29T06:44:03;13.38;;;3.55;;
25810;SDS011;13645;52.460;13.910;2022-07-29T06:46:30;7.28;;;3.08;;
25810;SDS011;13645;52.460;13.910;2022-07-29T06:48:58;6.72;;;2.85;;
25810;SDS011;13645;52.460;13.910;2022-07-29T06:51:27;6.82;;;2.67;;
25810;SDS011;13645;52.460;13.910;2022-07-29T06:53:54;8.77;;;2.97;;
25810;SDS011;13645;52.460;13.910;2022-07-29T06:56:31;10.02;;;2.70;;
25810;SDS011;13645;52.460;13.910;2022-07-29T06:59:05;6.82;;;2.75;;
25810;SDS011;13645;52.460;13.910;2022-07-29T07:01:32;10.23;;;2.92;;
25810;SDS011;13645;52.460;13.910;2022-07-29T07:03:59;11.98;;;2.80;;
25810;SDS011;13645;52.460;13.910;2022-07-29T07:06:25;11.35;;;2.80;;
25810;SDS011;13645;52.460;13.910;2022-07-29T07:08:52;10.25;;;3.08;;
25810;SDS011;13645;52.460;13.910;2022-07-29T07:11:19;8.88;;;2.65;;
25810;SDS011;13645;52.460;13.910;2022-07-29T07:13:46;8.77;;;2.70;;
25810;SDS011;13645;52.460;13.910;2022-07-29T07:16:12;6.78;;;2.90;;
25810;SDS011;13645;52.460;13.910;2022-07-29T07:18:39;10.27;;;2.80;;
25810;SDS011;13645;52.460;13.910;2022-07-29T07:21:06;7.95;;;2.65;;
25810;SDS011;13645;52.460;13.910;2022-07-29T07:23:33;7.80;;;2.65;;
25810;SDS011;13645;52.460;13.910;2022-07-29T07:26:00;9.75;;;2.58;;
25810;SDS011;13645;52.460;13.910;2022-07-29T07:28:26;9.68;;;2.80;;
25810;SDS011;13645;52.460;13.910;2022-07-29T07:30:53;13.70;;;2.60;;
25810;SDS011;13645;52.460;13.910;2022-07-29T07:33:20;9.57;;;2.80;;
25810;SDS011;13645;52.460;13.910;2022-07-29T07:35:47;10.52;;;2.90;;
25810;SDS011;13645;52.460;13.910;2022-07-29T07:38:13;9.45;;;2.53;;
25810;SDS011;13645;52.460;13.910;2022-07-29T07:40:40;8.35;;;2.40;;
25810;SDS011;13645;52.460;13.910;2022-07-29T07:43:07;8.77;;;2.55;;
25810;SDS011;13645;52.460;13.910;2022-07-29T07:45:34;7.25;;;2.30;;
25810;SDS011;13645;52.460;13.910;2022-07-29T07:48:03;9.80;;;2.00;;
25810;SDS011;13645;52.460;13.910;2022-07-29T07:50:30;13.10;;;2.70;;
25810;SDS011;13645;52.460;13.910;2022-07-29T07:52:58;7.47;;;2.83;;
25810;SDS011;13645;52.460;13.910;2022-07-29T07:55:25;5.95;;;2.28;;
25810;SDS011;13645;52.460;13.910;2022-07-29T07:57:52;3.38;;;2.05;;
25810;SDS011;13645;52.460;13.910;2022-07-29T08:00:19;11.55;;;2.28;;
25810;SDS011;13645;52.460;13.910;2022-07-29T08:02:48;5.35;;;2.10;;
25810;SDS011;13645;52.460;13.910;2022-07-29T08:05:16;14.20;;;2.85;;
25810;SDS011;13645;52.460;13.910;2022-07-29T08:07:44;6.65;;;2.00;;
25810;SDS011;13645;52.460;13.910;2022-07-29T08:10:12;6.90;;;2.40;;
25810;SDS011;13645;52.460;13.910;2022-07-29T08:12:41;6.35;;;2.10;;
25810;SDS011;13645;52.460;13.910;2022-07-29T08:15:08;8.55;;;2.30;;
25810;SDS011;13645;52.460;13.910;2022-07-29T08:17:35;6.22;;;1.92;;
25810;SDS011;13645;52.460;13.910;2022-07-29T08:20:02;6.68;;;2.33;;
25810;SDS011;13645;52.460;13.910;2022-07-29T08:22:30;10.25;;;2.30;;
25810;SDS011;13645;52.460;13.910;2022-07-29T08:24:57;8.35;;;2.10;;
25810;SDS011;13645;52.460;13.910;2022-07-29T08:27:24;7.50;;;2.40;;
25810;SDS011;13645;52.460;13.910;2022-07-29T08:30:08;7.32;;;2.20;;
25810;SDS011;13645;52.460;13.910;2022-07-29T08:32:36;4.90;;;2.00;;
25810;SDS011;13645;52.460;13.910;2022-07-29T08:35:19;5.72;;;1.90;;
25810;SDS011;13645;52.460;13.910;2022-07-29T08:37:47;11.65;;;2.00;;
25810;SDS011;13645;52.460;13.910;2022-07-29T08:40:14;5.13;;;1.90;;
25810;SDS011;13645;52.460;13.910;2022-07-29T08:42:41;5.72;;;2.30;;
25810;SDS011;13645;52.460;13.910;2022-07-29T08:45:08;4.10;;;1.80;;
25810;SDS011;13645;52.460;13.910;2022-07-29T08:47:35;15.23;;;2.10;;
25810;SDS011;13645;52.460;13.910;2022-07-29T08:50:09;9.65;;;2.00;;
25810;SDS011;13645;52.460;13.910;2022-07-29T08:52:37;6.25;;;2.15;;
25810;SDS011;13645;52.460;13.910;2022-07-29T08:55:05;6.90;;;1.80;;
25810;SDS011;13645;52.460;13.910;2022-07-29T08:57:34;7.10;;;1.77;;
25810;SDS011;13645;52.460;13.910;2022-07-29T09:00:06;6.25;;;1.98;;
25810;SDS011;13645;52.460;13.910;2022-07-29T09:02:39;5.47;;;1.90;;
25810;SDS011;13645;52.460;13.910;2022-07-29T09:05:13;7.32;;;2.30;;
25810;SDS011;13645;52.460;13.910;2022-07-29T09:07:40;6.15;;;1.80;;
25810;SDS011;13645;52.460;13.910;2022-07-29T09:10:09;10.35;;;1.90;;
25810;SDS011;13645;52.460;13.910;2022-07-29T09:12:36;10.95;;;1.95;;
25810;SDS011;13645;52.460;13.910;2022-07-29T09:15:04;5.70;;;2.05;;
25810;SDS011;13645;52.460;13.910;2022-07-29T09:17:41;5.65;;;2.03;;
25810;SDS011;13645;52.460;13.910;2022-07-29T09:20:16;5.07;;;1.50;;
25810;SDS011;13645;52.460;13.910;2022-07-29T09:22:45;6.15;;;1.73;;
25810;SDS011;13645;52.460;13.910;2022-07-29T09:25:37;5.75;;;1.80;;
25810;SDS011;13645;52.460;13.910;2022-07-29T09:28:06;6.15;;;1.80;;
25810;SDS011;13645;52.460;13.910;2022-07-29T09:33:16;5.05;;;1.67;;
25810;SDS011;13645;52.460;13.910;2022-07-29T09:35:43;6.10;;;2.00;;
25810;SDS011;13645;52.460;13.910;2022-07-29T09:38:22;4.30;;;1.70;;
25810;SDS011;13645;52.460;13.910;2022-07-29T09:40:56;7.00;;;1.80;;
25810;SDS011;13645;52.460;13.910;2022-07-29T09:43:31;9.98;;;1.90;;
25810;SDS011;13645;52.460;13.910;2022-07-29T09:46:19;6.20;;;2.30;;
25810;SDS011;13645;52.460;13.910;2022-07-29T09:48:45;8.57;;;2.17;;
25810;SDS011;13645;52.460;13.910;2022-07-29T09:51:34;4.55;;;1.70;;
25810;SDS011;13645;52.460;13.910;2022-07-29T09:56:49;5.53;;;1.92;;
25810;SDS011;13645;52.460;13.910;2022-07-29T09:59:16;5.93;;;1.85;;
25810;SDS011;13645;52.460;13.910;2022-07-29T10:01:43;6.88;;;2.03;;
25810;SDS011;13645;52.460;13.910;2022-07-29T10:04:10;6.78;;;1.90;;
25810;SDS011;13645;52.460;13.910;2022-07-29T10:06:54;7.00;;;2.00;;
25810;SDS011;13645;52.460;13.910;2022-07-29T10:09:29;6.40;;;2.30;;
25810;SDS011;13645;52.460;13.910;2022-07-29T10:14:32;6.90;;;2.17;;
25810;SDS011;13645;52.460;13.910;2022-07-29T10:16:59;9.50;;;2.15;;
25810;SDS011;13645;52.460;13.910;2022-07-29T10:19:28;9.43;;;2.20;;
25810;SDS011;13645;52.460;13.910;2022-07-29T10:22:00;11.10;;;2.10;;
25810;SDS011;13645;52.460;13.910;2022-07-29T10:24:29;9.45;;;2.10;;
25810;SDS011;13645;52.460;13.910;2022-07-29T10:26:58;5.68;;;1.80;;
25810;SDS011;13645;52.460;13.910;2022-07-29T10:29:26;3.50;;;2.17;;
25810;SDS011;13645;52.460;13.910;2022-07-29T10:34:34;6.50;;;1.95;;
25810;SDS011;13645;52.460;13.910;2022-07-29T10:37:24;7.35;;;1.83;;
25810;SDS011;13645;52.460;13.910;2022-07-29T10:40:09;5.00;;;1.90;;
25810;SDS011;13645;52.460;13.910;2022-07-29T10:43:14;3.58;;;1.77;;
25810;SDS011;13645;52.460;13.910;2022-07-29T10:45:54;6.22;;;2.00;;
25810;SDS011;13645;52.460;13.910;2022-07-29T10:48:23;8.63;;;2.10;;
25810;SDS011;13645;52.460;13.910;2022-07-29T10:53:21;5.75;;;1.98;;
25810;SDS011;13645;52.460;13.910;2022-07-29T10:55:50;4.53;;;2.15;;
25810;SDS011;13645;52.460;13.910;2022-07-29T11:00:50;9.45;;;2.33;;
25810;SDS011;13645;52.460;13.910;2022-07-29T11:06:50;7.15;;;2.25;;
25810;SDS011;13645;52.460;13.910;2022-07-29T11:09:29;4.28;;;1.90;;
25810;SDS011;13645;52.460;13.910;2022-07-29T11:12:04;11.07;;;2.30;;
25810;SDS011;13645;52.460;13.910;2022-07-29T11:14:54;5.32;;;2.30;;
25810;SDS011;13645;52.460;13.910;2022-07-29T11:17:25;7.68;;;2.25;;
25810;SDS011;13645;52.460;13.910;2022-07-29T11:25:45;5.43;;;2.40;;
25810;SDS011;13645;52.460;13.910;2022-07-29T11:28:32;10.05;;;2.25;;
25810;SDS011;13645;52.460;13.910;2022-07-29T11:31:01;5.10;;;2.30;;
25810;SDS011;13645;52.460;13.910;2022-07-29T11:33:31;4.78;;;2.10;;
25810;SDS011;13645;52.460;13.910;2022-07-29T11:36:19;5.18;;;1.92;;
25810;SDS011;13645;52.460;13.910;2022-07-29T11:38:53;4.13;;;2.10;;
25810;SDS011;13645;52.460;13.910;2022-07-29T11:50:26;6.28;;;2.20;;
25810;SDS011;13645;52.460;13.910;2022-07-29T11:52:58;6.93;;;2.13;;
25810;SDS011;13645;52.460;13.910;2022-07-29T11:55:33;7.82;;;2.47;;
25810;SDS011;13645;52.460;13.910;2022-07-29T11:58:16;4.93;;;1.90;;
25810;SDS011;13645;52.460;13.910;2022-07-29T12:00:50;7.57;;;1.85;;
25810;SDS011;13645;52.460;13.910;2022-07-29T12:03:25;6.25;;;2.38;;
25810;SDS011;13645;52.460;13.910;2022-07-29T12:06:01;6.30;;;2.30;;
25810;SDS011;13645;52.460;13.910;2022-07-29T12:08:29;8.70;;;2.10;;
25810;SDS011;13645;52.460;13.910;2022-07-29T12:10:56;4.75;;;2.33;;
25810;SDS011;13645;52.460;13.910;2022-07-29T12:13:23;6.05;;;2.33;;
25810;SDS011;13645;52.460;13.910;2022-07-29T12:16:03;7.32;;;2.13;;
25810;SDS011;13645;52.460;13.910;2022-07-29T12:18:31;7.43;;;2.40;;
25810;SDS011;13645;52.460;13.910;2022-07-29T12:21:01;8.13;;;2.10;;
25810;SDS011;13645;52.460;13.910;2022-07-29T12:23:30;5.82;;;2.40;;
25810;SDS011;13645;52.460;13.910;2022-07-29T12:26:00;9.55;;;2.50;;
25810;SDS011;13645;52.460;13.910;2022-07-29T12:28:38;4.97;;;2.20;;
25810;SDS011;13645;52.460;13.910;2022-07-29T12:31:06;7.20;;;2.08;;
25810;SDS011;13645;52.460;13.910;2022-07-29T12:36:26;5.40;;;2.42;;
25810;SDS011;13645;52.460;13.910;2022-07-29T12:38:53;5.85;;;2.10;;
25810;SDS011;13645;52.460;13.910;2022-07-29T12:41:21;4.25;;;2.05;;
25810;SDS011;13645;52.460;13.910;2022-07-29T12:43:52;6.72;;;2.25;;
25810;SDS011;13645;52.460;13.910;2022-07-29T12:46:19;5.93;;;2.28;;
25810;SDS011;13645;52.460;13.910;2022-07-29T12:48:49;5.95;;;2.30;;
25810;SDS011;13645;52.460;13.910;2022-07-29T12:51:30;17.85;;;2.35;;
25810;SDS011;13645;52.460;13.910;2022-07-29T12:56:37;6.45;;;2.30;;
25810;SDS011;13645;52.460;13.910;2022-07-29T12:59:16;10.15;;;2.35;;
25810;SDS011;13645;52.460;13.910;2022-07-29T13:01:46;4.45;;;1.95;;
25810;SDS011;13645;52.460;13.910;2022-07-29T13:04:28;7.50;;;2.40;;
25810;SDS011;13645;52.460;13.910;2022-07-29T13:07:00;8.70;;;2.20;;
25810;SDS011;13645;52.460;13.910;2022-07-29T13:09:42;4.47;;;2.20;;
25810;SDS011;13645;52.460;13.910;2022-07-29T13:12:12;10.50;;;2.40;;
25810;SDS011;13645;52.460;13.910;2022-07-29T13:14:43;8.70;;;2.30;;
25810;SDS011;13645;52.460;13.910;2022-07-29T13:17:13;8.52;;;2.20;;
25810;SDS011;13645;52.460;13.910;2022-07-29T13:19:48;9.35;;;2.40;;
25810;SDS011;13645;52.460;13.910;2022-07-29T13:22:20;8.23;;;2.30;;
25810;SDS011;13645;52.460;13.910;2022-07-29T13:24:49;6.15;;;2.17;;
25810;SDS011;13645;52.460;13.910;2022-07-29T13:27:18;7.75;;;2.30;;
25810;SDS011;13645;52.460;13.910;2022-07-29T13:29:46;5.22;;;2.03;;
25810;SDS011;13645;52.460;13.910;2022-07-29T13:32:13;4.10;;;2.17;;
25810;SDS011;13645;52.460;13.910;2022-07-29T13:34:39;8.85;;;2.30;;
25810;SDS011;13645;52.460;13.910;2022-07-29T13:37:06;5.30;;;2.03;;
25810;SDS011;13645;52.460;13.910;2022-07-29T13:39:33;10.15;;;2.38;;
25810;SDS011;13645;52.460;13.910;2022-07-29T13:42:00;9.82;;;2.22;;
25810;SDS011;13645;52.460;13.910;2022-07-29T13:44:27;9.05;;;2.55;;
25810;SDS011;13645;52.460;13.910;2022-07-29T13:46:53;8.30;;;2.55;;
25810;SDS011;13645;52.460;13.910;2022-07-29T13:49:20;9.93;;;2.05;;
25810;SDS011;13645;52.460;13.910;2022-07-29T13:51:48;8.32;;;2.33;;
25810;SDS011;13645;52.460;13.910;2022-07-29T13:54:15;7.95;;;2.38;;
25810;SDS011;13645;52.460;13.910;2022-07-29T13:56:42;5.97;;;2.70;;
25810;SDS011;13645;52.460;13.910;2022-07-29T13:59:11;5.72;;;2.28;;
25810;SDS011;13645;52.460;13.910;2022-07-29T14:01:38;3.83;;;2.15;;
25810;SDS011;13645;52.460;13.910;2022-07-29T14:04:07;11.95;;;2.20;;
25810;SDS011;13645;52.460;13.910;2022-07-29T14:06:37;5.65;;;2.08;;
25810;SDS011;13645;52.460;13.910;2022-07-29T14:09:05;6.60;;;2.05;;
25810;SDS011;13645;52.460;13.910;2022-07-29T14:11:32;4.65;;;1.88;;
25810;SDS011;13645;52.460;13.910;2022-07-29T14:13:59;8.73;;;2.13;;
25810;SDS011;13645;52.460;13.910;2022-07-29T14:16:26;5.70;;;2.08;;
25810;SDS011;13645;52.460;13.910;2022-07-29T14:18:52;8.15;;;2.03;;
25810;SDS011;13645;52.460;13.910;2022-07-29T14:21:19;6.15;;;1.92;;
25810;SDS011;13645;52.460;13.910;2022-07-29T14:23:46;6.97;;;2.20;;
25810;SDS011;13645;52.460;13.910;2022-07-29T14:26:14;8.27;;;2.10;;
25810;SDS011;13645;52.460;13.910;2022-07-29T14:28:49;6.57;;;2.22;;
25810;SDS011;13645;52.460;13.910;2022-07-29T14:31:16;10.70;;;2.10;;
25810;SDS011;13645;52.460;13.910;2022-07-29T14:33:43;3.65;;;2.05;;
25810;SDS011;13645;52.460;13.910;2022-07-29T14:36:14;7.70;;;1.85;;
25810;SDS011;13645;52.460;13.910;2022-07-29T14:38:41;6.38;;;1.70;;
25810;SDS011;13645;52.460;13.910;2022-07-29T14:41:08;5.97;;;2.00;;
25810;SDS011;13645;52.460;13.910;2022-07-29T14:43:34;4.70;;;1.60;;
25810;SDS011;13645;52.460;13.910;2022-07-29T14:46:01;7.38;;;1.75;;
25810;SDS011;13645;52.460;13.910;2022-07-29T14:48:33;18.95;;;2.55;;
25810;SDS011;13645;52.460;13.910;2022-07-29T14:51:00;4.78;;;1.77;;
25810;SDS011;13645;52.460;13.910;2022-07-29T14:53:30;3.53;;;1.90;;
25810;SDS011;13645;52.460;13.910;2022-07-29T14:55:57;5.47;;;1.70;;
25810;SDS011;13645;52.460;13.910;2022-07-29T14:58:43;9.40;;;2.10;;
25810;SDS011;13645;52.460;13.910;2022-07-29T15:01:17;3.55;;;1.67;;
25810;SDS011;13645;52.460;13.910;2022-07-29T15:03:43;5.45;;;2.10;;
25810;SDS011;13645;52.460;13.910;2022-07-29T15:06:10;5.30;;;1.73;;
25810;SDS011;13645;52.460;13.910;2022-07-29T15:08:37;4.75;;;1.75;;
25810;SDS011;13645;52.460;13.910;2022-07-29T15:11:04;4.72;;;2.20;;
25810;SDS011;13645;52.460;13.910;2022-07-29T15:13:30;6.53;;;1.90;;
25810;SDS011;13645;52.460;13.910;2022-07-29T15:15:57;4.07;;;1.83;;
25810;SDS011;13645;52.460;13.910;2022-07-29T15:18:25;6.70;;;1.80;;
25810;SDS011;13645;52.460;13.910;2022-07-29T15:20:52;5.53;;;1.80;;
25810;SDS011;13645;52.460;13.910;2022-07-29T15:23:19;11.40;;;2.10;;
25810;SDS011;13645;52.460;13.910;2022-07-29T15:25:46;3.88;;;1.60;;
25810;SDS011;13645;52.460;13.910;2022-07-29T15:28:12;2.70;;;1.90;;
25810;SDS011;13645;52.460;13.910;2022-07-29T15:30:39;8.60;;;1.88;;
25810;SDS011;13645;52.460;13.910;2022-07-29T15:33:07;10.25;;;2.22;;
25810;SDS011;13645;52.460;13.910;2022-07-29T15:35:37;7.35;;;1.80;;
25810;SDS011;13645;52.460;13.910;2022-07-29T15:38:05;6.53;;;1.88;;
25810;SDS011;13645;52.460;13.910;2022-07-29T15:40:32;6.22;;;1.90;;
25810;SDS011;13645;52.460;13.910;2022-07-29T15:43:00;4.65;;;2.08;;
25810;SDS011;13645;52.460;13.910;2022-07-29T15:45:38;13.35;;;2.20;;